Terminal Aerodrome Forecast
Issued by NWS

Home | Current Version | Previous Version | Text Only | Print | Product List | Glossary On
Versions: 1 2 3 4 5 6 7 8 9 10 11 12 13 14 15 16 17 18
000
FTAK31 PANC 222121 AAA
TAFAEN
TAF AMD
PAEN 222121Z 2221/2318 02011KT P6SM VCSH BKN025
      TEMPO 2221/2223 BKN012=

USA.gov is the U.S. government's official web portal to all federal, state and local government web resources and services.